Time;durP1;ratioP1;P1;durP2;ratioP2;P2;SDS_P1;SDS_P2;PMS_P1;PMS_P2;Temp;Humidity;BMP_temperature;BMP_pressure;BME280_temperature;BME280_humidity;BME280_pressure;Samples;Min_cycle;Max_cycle;Signal;HPM_P1;HPM_P2
2022/08/07 00:02:50;;;;;;;1999.90;999.90;;;;;;;13.70;100.00;100569.91;5050996;28;20483;-52
2022/08/07 00:05:36;;;;;;;1999.90;999.90;;;;;;;13.67;100.00;100562.06;5053932;28;20044;-52
2022/08/07 00:08:23;;;;;;;1999.90;999.90;;;;;;;13.73;100.00;100570.66;5055692;28;20198;-52
2022/08/07 00:11:09;;;;;;;1999.90;999.90;;;;;;;13.67;100.00;100565.56;5051949;28;20480;-51
2022/08/07 00:13:53;;;;;;;1999.90;999.90;;;;;;;13.68;100.00;100569.94;5057295;28;20041;-52
2022/08/07 00:16:37;;;;;;;1999.90;999.90;;;;;;;13.66;100.00;100576.16;5055148;28;20467;-51
2022/08/07 00:19:22;;;;;;;1999.90;999.90;;;;;;;13.61;100.00;100567.50;5058602;28;20036;-52
2022/08/07 00:22:07;;;;;;;1999.90;999.90;;;;;;;13.60;100.00;100569.25;5057719;28;20041;-52
2022/08/07 00:24:51;;;;;;;1999.90;999.90;;;;;;;13.47;100.00;100562.59;5057442;28;20171;-51
2022/08/07 00:27:36;;;;;;;1999.90;999.90;;;;;;;13.48;100.00;100578.31;5050770;28;20076;-52
2022/08/07 00:30:21;;;;;;;1999.90;999.90;;;;;;;13.45;100.00;100569.63;5054347;28;20055;-52
2022/08/07 00:33:06;;;;;;;1999.90;999.90;;;;;;;13.43;100.00;100584.63;5057576;28;20455;-53
2022/08/07 00:35:52;;;;;;;1999.90;999.90;;;;;;;13.39;100.00;100575.03;5054904;28;20691;-51
2022/08/07 00:38:37;;;;;;;1999.90;999.90;;;;;;;13.46;100.00;100579.28;5059829;28;20072;-52
2022/08/07 00:41:29;;;;;;;1999.90;999.90;;;;;;;13.42;100.00;100585.50;5054070;28;20051;-51
2022/08/07 00:44:15;;;;;;;;;;;;;;;13.32;100.00;100584.84;5051075;28;20125;-51
2022/08/07 00:47:04;;;;;;;1999.90;999.90;;;;;;;13.29;100.00;100580.56;5049765;28;20501;-52
2022/08/07 00:49:49;;;;;;;1999.90;999.90;;;;;;;13.21;100.00;100581.59;5061675;28;20053;-51
2022/08/07 00:52:33;;;;;;;1999.90;999.90;;;;;;;13.15;100.00;100585.22;5049389;28;20052;-51
2022/08/07 00:55:17;;;;;;;1999.90;999.90;;;;;;;13.20;100.00;100586.00;5054051;28;20724;-52
2022/08/07 00:58:02;;;;;;;1999.90;999.90;;;;;;;13.04;100.00;100580.22;5049791;28;20033;-51
2022/08/07 01:00:48;;;;;;;1999.90;999.90;;;;;;;13.10;100.00;100590.63;5050473;28;20122;-52
2022/08/07 01:03:33;;;;;;;1999.90;999.90;;;;;;;13.14;100.00;100588.78;5048431;28;20174;-52
2022/08/07 01:06:18;;;;;;;1999.90;999.90;;;;;;;13.32;100.00;100583.13;5047787;28;20618;-52
2022/08/07 01:09:03;;;;;;;1999.90;999.90;;;;;;;13.10;100.00;100593.25;5050157;28;20047;-52
2022/08/07 01:11:49;;;;;;;1999.90;999.90;;;;;;;12.97;100.00;100581.28;5050090;28;20041;-51
2022/08/07 01:14:34;;;;;;;1999.90;999.90;;;;;;;13.17;100.00;100577.31;5052779;28;20063;-52
2022/08/07 01:17:19;;;;;;;1999.90;999.90;;;;;;;13.04;100.00;100587.25;5050855;28;20063;-52
2022/08/07 01:20:10;;;;;;;1999.90;999.90;;;;;;;12.99;100.00;100581.22;5052841;28;20101;-52
2022/08/07 01:22:55;;;;;;;1999.90;999.90;;;;;;;12.94;100.00;100591.84;5051199;28;20117;-52
2022/08/07 01:25:40;;;;;;;1999.90;999.90;;;;;;;13.05;100.00;100581.09;5053753;28;20056;-51
2022/08/07 01:28:26;;;;;;;1999.90;999.90;;;;;;;13.04;100.00;100579.38;5054616;28;20052;-52
2022/08/07 01:31:12;;;;;;;1999.90;999.90;;;;;;;12.95;100.00;100575.19;5053564;28;20056;-51
2022/08/07 01:34:01;;;;;;;1999.90;999.90;;;;;;;12.99;100.00;100579.44;5054146;28;20086;-51
2022/08/07 01:36:52;;;;;;;1999.90;999.90;;;;;;;12.99;100.00;100562.81;5051999;28;20165;-51
2022/08/07 01:39:41;;;;;;;1999.90;999.90;;;;;;;13.04;100.00;100577.59;5055130;28;20040;-51
2022/08/07 01:42:30;;;;;;;1999.90;999.90;;;;;;;12.98;100.00;100563.72;5055948;28;20098;-51
2022/08/07 01:45:14;;;;;;;1999.90;999.90;;;;;;;12.87;100.00;100571.88;5057599;28;20049;-51
2022/08/07 01:47:59;;;;;;;1999.90;999.90;;;;;;;12.91;100.00;100565.63;5059959;28;20151;-51
2022/08/07 01:50:54;;;;;;;1999.90;999.90;;;;;;;12.90;100.00;100579.66;5062216;28;20048;-52
2022/08/07 01:53:43;;;;;;;1999.90;999.90;;;;;;;12.90;100.00;100563.88;5054534;28;20147;-51
2022/08/07 01:56:42;;;;;;;1999.90;999.90;;;;;;;12.85;100.00;100571.03;5053539;28;20138;-52
2022/08/07 01:59:35;;;;;;;1999.90;999.90;;;;;;;12.79;100.00;100565.91;5055372;28;20236;-52
2022/08/07 02:02:30;;;;;;;1999.90;999.90;;;;;;;12.74;100.00;100573.00;5066709;28;20092;-52
2022/08/07 02:05:24;;;;;;;1999.90;999.90;;;;;;;12.78;100.00;100575.56;5054889;28;20118;-51
2022/08/07 02:08:15;;;;;;;1999.90;999.90;;;;;;;12.55;100.00;100569.94;5052882;28;20072;-52
2022/08/07 02:11:02;;;;;;;1999.90;999.90;;;;;;;12.61;100.00;100565.41;5052017;28;20062;-52
2022/08/07 02:13:49;;;;;;;1999.90;999.90;;;;;;;12.68;100.00;100560.03;5054520;28;20482;-52
2022/08/07 02:16:38;;;;;;;1999.90;999.90;;;;;;;12.72;100.00;100562.53;5056063;28;20045;-52
2022/08/07 02:19:23;;;;;;;1999.90;999.90;;;;;;;12.84;100.00;100572.78;5055367;28;20037;-52
2022/08/07 02:22:11;;;;;;;1999.90;999.90;;;;;;;12.73;100.00;100572.16;5068089;28;20127;-52
2022/08/07 02:24:57;;;;;;;1999.90;999.90;;;;;;;12.80;100.00;100571.13;5058084;28;20523;-51
2022/08/07 02:27:43;;;;;;;1999.90;999.90;;;;;;;12.68;100.00;100570.53;5051985;28;20396;-51
2022/08/07 02:30:29;;;;;;;1999.90;999.90;;;;;;;12.67;100.00;100569.66;5054644;28;20581;-52
2022/08/07 02:33:16;;;;;;;1999.90;999.90;;;;;;;12.67;100.00;100571.41;5055974;28;20056;-51
2022/08/07 02:36:04;;;;;;;1999.90;999.90;;;;;;;12.63;100.00;100574.13;5055043;28;20048;-51
2022/08/07 02:38:51;;;;;;;1999.90;999.90;;;;;;;12.65;100.00;100568.84;5057255;28;20097;-52
2022/08/07 02:41:38;;;;;;;1999.90;999.90;;;;;;;12.67;100.00;100566.16;5055467;28;20088;-52
2022/08/07 02:44:26;;;;;;;1999.90;999.90;;;;;;;12.42;100.00;100571.09;5057442;28;20171;-51
2022/08/07 02:47:12;;;;;;;1999.90;999.90;;;;;;;12.49;100.00;100570.91;5054867;28;20059;-51
2022/08/07 02:49:57;;;;;;;1999.90;999.90;;;;;;;12.62;100.00;100572.38;5055667;28;20672;-51
2022/08/07 02:52:51;;;;;;;1999.90;999.90;;;;;;;12.59;100.00;100577.72;5057757;28;20075;-52
2022/08/07 02:55:41;;;;;;;1999.90;999.90;;;;;;;12.47;100.00;100570.06;5056573;28;20525;-51
2022/08/07 02:58:27;;;;;;;1999.90;999.90;;;;;;;12.48;100.00;100578.81;5053892;28;20623;-52
2022/08/07 03:01:16;;;;;;;1999.90;999.90;;;;;;;12.35;100.00;100583.50;5055800;28;20036;-52
2022/08/07 03:04:01;;;;;;;1999.90;999.90;;;;;;;12.34;100.00;100579.97;5054961;28;20477;-52
2022/08/07 03:06:48;;;;;;;1999.90;999.90;;;;;;;12.21;100.00;100580.25;5053746;28;20080;-51
2022/08/07 03:09:34;;;;;;;1999.90;999.90;;;;;;;12.26;100.00;100576.66;5057563;28;20056;-52
2022/08/07 03:12:19;;;;;;;1999.90;999.90;;;;;;;12.24;100.00;100574.94;5055017;28;20071;-52
2022/08/07 03:15:06;;;;;;;1999.90;999.90;;;;;;;12.18;100.00;100575.06;5050150;28;20053;-51
2022/08/07 03:17:52;;;;;;;1999.90;999.90;;;;;;;12.25;100.00;100577.56;5050855;28;20094;-52
2022/08/07 03:20:38;;;;;;;1999.90;999.90;;;;;;;12.25;100.00;100576.66;5050470;28;20056;-51
2022/08/07 03:23:26;;;;;;;1999.90;999.90;;;;;;;12.18;100.00;100575.91;5050794;28;20541;-52
2022/08/07 03:26:15;;;;;;;1999.90;999.90;;;;;;;12.25;100.00;100574.03;5065647;28;20486;-52
2022/08/07 03:29:02;;;;;;;1999.90;999.90;;;;;;;12.14;100.00;100574.25;5055943;28;20309;-51
2022/08/07 03:31:50;;;;;;;1999.90;999.90;;;;;;;12.18;100.00;100572.44;5055395;28;20055;-49
2022/08/07 03:34:37;;;;;;;1999.90;999.90;;;;;;;12.25;100.00;100564.41;5054146;28;20122;-50
2022/08/07 03:37:24;;;;;;;1999.90;999.90;;;;;;;12.17;100.00;100566.31;5051407;28;20052;-52
2022/08/07 03:40:09;;;;;;;1999.90;999.90;;;;;;;12.30;100.00;100577.44;5053311;28;20052;-52
2022/08/07 03:42:55;;;;;;;1999.90;999.90;;;;;;;12.21;100.00;100567.13;5056497;28;20411;-52
2022/08/07 03:45:39;;;;;;;1999.90;999.90;;;;;;;12.36;100.00;100574.69;5054463;28;20502;-52
2022/08/07 03:48:30;;;;;;;1999.90;999.90;;;;;;;12.23;100.00;100570.59;5055192;28;20082;-52
2022/08/07 03:51:17;;;;;;;1999.90;999.90;;;;;;;12.22;100.00;100571.47;5058035;28;20066;-52
2022/08/07 03:54:02;;;;;;;1999.90;999.90;;;;;;;12.27;100.00;100559.13;5054579;28;20399;-52
2022/08/07 03:56:49;;;;;;;1999.90;999.90;;;;;;;12.39;100.00;100572.00;5051683;28;20051;-52
2022/08/07 03:59:35;;;;;;;1999.90;999.90;;;;;;;12.20;100.00;100568.03;5054986;28;21985;-52
2022/08/07 04:02:21;;;;;;;1999.90;999.90;;;;;;;12.47;100.00;100577.97;5052075;28;20695;-52
2022/08/07 04:05:06;;;;;;;1999.90;999.90;;;;;;;12.48;100.00;100582.34;5048860;28;20565;-51
2022/08/07 04:07:51;;;;;;;1999.90;999.90;;;;;;;12.55;100.00;100580.44;5051057;28;20083;-52
2022/08/07 04:10:41;;;;;;;1999.90;999.90;;;;;;;12.52;100.00;100581.38;5056856;28;20056;-52
2022/08/07 04:13:25;;;;;;;1999.90;999.90;;;;;;;12.64;100.00;100585.47;5055464;28;20090;-52
2022/08/07 04:16:11;;;;;;;1999.90;999.90;;;;;;;12.56;100.00;100584.78;5053561;28;20514;-51
2022/08/07 04:18:57;;;;;;;1999.90;999.90;;;;;;;12.66;100.00;100590.72;5054274;28;20099;-52
2022/08/07 04:21:42;;;;;;;1999.90;999.90;;;;;;;12.61;100.00;100580.31;5051751;28;20411;-52
2022/08/07 04:24:27;;;;;;;1999.90;999.90;;;;;;;12.88;100.00;100596.38;5049355;28;20141;-53
2022/08/07 04:27:11;;;;;;;1999.90;999.90;;;;;;;13.03;100.00;100596.03;5051132;28;20710;-50
2022/08/07 04:29:57;;;;;;;1999.90;999.90;;;;;;;13.19;100.00;100580.75;5051252;28;20049;-50
2022/08/07 04:32:42;;;;;;;1999.90;999.90;;;;;;;13.49;100.00;100601.13;5049169;28;20052;-52
2022/08/07 04:35:27;;;;;;;1999.90;999.90;;;;;;;13.60;100.00;100598.22;5048188;28;20052;-52
2022/08/07 04:38:14;;;;;;;1999.90;999.90;;;;;;;14.05;100.00;100595.31;5055249;28;20099;-52
2022/08/07 04:41:04;;;;;;;1999.90;999.90;;;;;;;14.17;100.00;100607.25;5050475;28;20113;-51
2022/08/07 04:43:56;;;;;;;1999.90;999.90;;;;;;;14.52;100.00;100611.59;5053374;28;20756;-53
2022/08/07 04:47:01;;;;;;;1999.90;999.90;;;;;;;14.93;100.00;100602.47;5055492;28;20056;-53
2022/08/07 04:50:10;;;;;;;1999.90;999.90;;;;;;;15.51;100.00;100597.13;5049821;28;20082;-53
2022/08/07 04:53:15;;;;;;;1999.90;999.90;;;;;;;15.31;100.00;100599.56;5051656;28;20059;-52
2022/08/07 04:56:07;;;;;;;1999.90;999.90;;;;;;;15.25;100.00;100584.78;5057535;28;20569;-53
2022/08/07 04:59:01;;;;;;;1999.90;999.90;;;;;;;15.89;100.00;100589.69;5058036;28;20426;-53
2022/08/07 05:02:04;;;;;;;1999.90;999.90;;;;;;;16.09;100.00;100587.25;5058701;28;20056;-53
2022/08/07 05:05:03;;;;;;;1999.90;999.90;;;;;;;16.13;100.00;100595.91;5051011;28;21426;-53
2022/08/07 05:08:06;;;;;;;1999.90;999.90;;;;;;;16.65;100.00;100596.66;5053412;28;20086;-53
2022/08/07 05:10:57;;;;;;;;;;;;;;;16.52;100.00;100614.75;5052557;28;20354;-54
2022/08/07 05:13:50;;;;;;;1999.90;999.90;;;;;;;16.58;100.00;100605.75;5049433;28;19935;-50
2022/08/07 05:16:39;;;;;;;1999.90;999.90;;;;;;;16.85;100.00;100605.66;5052992;28;20052;-51
2022/08/07 05:19:29;;;;;;;1999.90;999.90;;;;;;;16.73;100.00;100617.50;5053996;28;20280;-53
2022/08/07 05:22:17;;;;;;;1999.90;999.90;;;;;;;16.88;100.00;100614.31;5057522;28;20979;-55
2022/08/07 05:25:03;;;;;;;1999.90;999.90;;;;;;;17.23;100.00;100612.94;5061976;28;20063;-50
2022/08/07 05:27:49;;;;;;;1999.90;999.90;;;;;;;16.45;100.00;100617.69;5056853;28;20056;-50
2022/08/07 05:30:37;;;;;;;1999.90;999.90;;;;;;;17.14;100.00;100608.00;5059119;28;20395;-52
2022/08/07 05:33:22;;;;;;;1999.90;999.90;;;;;;;17.14;100.00;100613.31;5055407;28;20511;-53
2022/08/07 05:36:09;;;;;;;1999.90;999.90;;;;;;;17.70;100.00;100610.13;5070452;28;20094;-54
2022/08/07 05:38:56;;;;;;;1999.90;999.90;;;;;;;17.28;100.00;100623.34;5061655;28;20155;-54
2022/08/07 05:41:42;;;;;;;1999.90;999.90;;;;;;;17.49;100.00;100619.00;5054644;28;20495;-53
2022/08/07 05:44:29;;;;;;;1999.90;999.90;;;;;;;18.10;100.00;100621.75;5067310;28;20080;-54
2022/08/07 05:47:18;;;;;;;1999.90;999.90;;;;;;;18.34;100.00;100625.09;5058228;28;20059;-53
2022/08/07 05:50:04;;;;;;;1999.90;999.90;;;;;;;17.95;100.00;100623.25;5060547;28;20075;-54
2022/08/07 05:52:49;;;;;;;1999.90;999.90;;;;;;;17.61;100.00;100628.19;5057228;28;20121;-52
2022/08/07 05:55:34;;;;;;;1999.90;999.90;;;;;;;17.61;100.00;100622.91;5059482;28;20060;-53
2022/08/07 05:58:22;;;;;;;1999.90;999.90;;;;;;;17.75;100.00;100623.22;5053601;28;20044;-53
2022/08/07 06:01:09;;;;;;;1999.90;999.90;;;;;;;18.43;100.00;100632.66;5060348;28;20053;-53
2022/08/07 06:03:56;;;;;;;1999.90;999.90;;;;;;;18.04;100.00;100621.16;5056695;28;20534;-53
2022/08/07 06:06:42;;;;;;;1999.90;999.90;;;;;;;18.35;100.00;100625.94;5054963;28;20055;-51
2022/08/07 06:09:28;;;;;;;1999.90;999.90;;;;;;;18.10;100.00;100636.75;5055122;28;20052;-52
2022/08/07 06:12:14;;;;;;;1999.90;999.90;;;;;;;18.86;100.00;100630.72;5057719;28;20056;-51
2022/08/07 06:14:59;;;;;;;1999.90;999.90;;;;;;;18.49;100.00;100633.28;5059027;28;20528;-53
2022/08/07 06:17:45;;;;;;;1999.90;999.90;;;;;;;18.69;100.00;100631.47;5054012;28;20484;-53
2022/08/07 06:20:30;;;;;;;1999.90;999.90;;;;;;;18.72;100.00;100629.59;5052222;28;20044;-53
2022/08/07 06:23:16;;;;;;;1999.90;999.90;;;;;;;19.07;100.00;100638.59;5053168;28;20395;-53
2022/08/07 06:26:03;;;;;;;1999.90;999.90;;;;;;;18.97;100.00;100624.91;5053126;28;20097;-53
2022/08/07 06:28:52;;;;;;;1999.90;999.90;;;;;;;18.98;100.00;100631.97;5053015;28;20534;-53
2022/08/07 06:31:37;;;;;;;1999.90;999.90;;;;;;;19.55;100.00;100637.19;5053866;28;20052;-54
2022/08/07 06:34:24;;;;;;;1999.90;999.90;;;;;;;19.66;100.00;100632.25;5052878;28;20049;-51
2022/08/07 06:37:09;;;;;;;1999.90;999.90;;;;;;;19.06;100.00;100639.53;5051754;28;20938;-54
2022/08/07 06:39:56;;;;;;;1999.90;999.90;;;;;;;19.99;100.00;100639.47;5055952;28;20817;-54
2022/08/07 06:42:42;;;;;;;1999.90;999.90;;;;;;;19.98;100.00;100640.38;5057501;28;20055;-53
2022/08/07 06:45:33;;;;;;;1999.90;999.90;;;;;;;20.14;100.00;100638.66;5057104;28;20514;-55
2022/08/07 06:48:20;;;;;;;1999.90;999.90;;;;;;;20.16;100.00;100646.56;5053104;28;20069;-54
2022/08/07 06:51:08;;;;;;;1999.90;999.90;;;;;;;19.80;100.00;100640.38;5055611;28;20057;-54
2022/08/07 06:54:02;;;;;;;1999.90;999.90;;;;;;;19.32;100.00;100641.81;5052323;28;20067;-55
2022/08/07 06:56:49;;;;;;;;;;;;;;;20.00;100.00;100650.00;5041394;28;20060;-54
2022/08/07 06:59:40;;;;;;;1999.90;999.90;;;;;;;19.97;100.00;100642.19;5055564;28;20698;-54
2022/08/07 07:02:25;;;;;;;1999.90;999.90;;;;;;;20.57;100.00;100648.88;5052320;28;20048;-55
2022/08/07 07:05:11;;;;;;;1999.90;999.90;;;;;;;20.63;100.00;100646.75;5049887;28;20079;-55
2022/08/07 07:07:56;;;;;;;1999.90;999.90;;;;;;;19.95;100.00;100652.03;5052261;28;20052;-55
2022/08/07 07:10:41;;;;;;;1999.90;999.90;;;;;;;20.59;100.00;100653.19;5053884;28;20052;-55
2022/08/07 07:13:31;;;;;;;1999.90;999.90;;;;;;;20.64;100.00;100653.81;5052635;28;20045;-54
2022/08/07 07:16:19;;;;;;;1999.90;999.90;;;;;;;20.29;100.00;100642.31;5055280;28;20060;-54
2022/08/07 07:19:06;;;;;;;1999.90;999.90;;;;;;;21.12;100.00;100649.38;5052959;28;20055;-54
2022/08/07 07:21:54;;;;;;;1999.90;999.90;;;;;;;21.67;100.00;100654.28;5050546;28;20049;-53
2022/08/07 07:24:40;;;;;;;1999.90;999.90;;;;;;;21.30;100.00;100644.84;5053705;28;20048;-53
2022/08/07 07:27:29;;;;;;;1999.90;999.90;;;;;;;21.43;100.00;100653.03;5055792;28;20067;-53
2022/08/07 07:30:14;;;;;;;1999.90;999.90;;;;;;;21.40;100.00;100643.41;5053854;28;20048;-56
2022/08/07 07:33:01;;;;;;;1999.90;999.90;;;;;;;21.70;100.00;100639.91;5050473;28;20044;-56
2022/08/07 07:35:49;;;;;;;1999.90;999.90;;;;;;;21.77;100.00;100633.28;5050912;28;20036;-55
2022/08/07 07:38:34;;;;;;;1999.90;999.90;;;;;;;22.44;100.00;100632.91;5055203;28;20080;-55
2022/08/07 07:41:21;;;;;;;1999.90;999.90;;;;;;;21.36;97.09;100636.53;5053156;28;20110;-56
2022/08/07 07:44:08;;;;;;;1999.90;999.90;;;;;;;21.80;100.00;100626.91;5052746;28;20122;-55
2022/08/07 07:46:55;;;;;;;1999.90;999.90;;;;;;;22.21;96.96;100627.16;5056421;28;20047;-55
2022/08/07 07:49:43;;;;;;;1999.90;999.90;;;;;;;21.93;96.39;100630.56;5054058;28;20114;-55
2022/08/07 07:52:29;;;;;;;1999.90;999.90;;;;;;;21.68;93.31;100639.16;5050986;28;20086;-55
2022/08/07 07:55:17;;;;;;;1999.90;999.90;;;;;;;21.72;95.44;100630.03;5053533;28;20062;-56
2022/08/07 07:58:04;;;;;;;1999.90;999.90;;;;;;;22.08;90.45;100624.31;5053441;28;20138;-55
2022/08/07 08:00:49;;;;;;;1999.90;999.90;;;;;;;22.76;89.67;100617.53;5051437;28;20093;-55
2022/08/07 08:03:37;;;;;;;1999.90;999.90;;;;;;;22.27;91.56;100628.59;5051845;28;20413;-55
2022/08/07 08:06:23;;;;;;;1999.90;999.90;;;;;;;22.73;89.63;100626.59;5054882;28;20053;-55
2022/08/07 08:09:09;;;;;;;1999.90;999.90;;;;;;;23.35;87.84;100614.69;5050419;28;20048;-55
2022/08/07 08:11:55;;;;;;;1999.90;999.90;;;;;;;23.78;86.17;100626.06;5050463;28;20480;-55
2022/08/07 08:14:40;;;;;;;1999.90;999.90;;;;;;;23.53;79.90;100622.34;5051114;28;20057;-56
2022/08/07 08:17:26;;;;;;;1999.90;999.90;;;;;;;24.39;89.38;100631.72;5052682;28;20053;-55
2022/08/07 08:20:13;;;;;;;1999.90;999.90;;;;;;;23.51;84.76;100626.94;5052479;28;20110;-56
2022/08/07 08:29:08;;;;;;;1999.90;999.90;;;;;;;23.72;74.91;100629.16;5052053;28;20091;-55
2022/08/07 08:31:54;;;;;;;1999.90;999.90;;;;;;;22.48;82.41;100629.94;5055422;28;20140;-56
2022/08/07 08:34:51;;;;;;;1999.90;999.90;;;;;;;23.30;78.73;100625.66;5050172;28;20052;-55
2022/08/07 08:37:37;;;;;;;1999.90;999.90;;;;;;;22.53;76.30;100633.19;5052752;28;20048;-54
2022/08/07 08:40:34;;;;;;;1999.90;999.90;;;;;;;23.83;78.26;100623.13;5056261;28;20423;-55
2022/08/07 08:43:34;;;;;;;1999.90;999.90;;;;;;;22.86;78.89;100630.22;5056514;28;20040;-56
2022/08/07 08:47:04;;;;;;;1999.90;999.90;;;;;;;23.84;77.04;100625.66;5053395;28;20075;-55
2022/08/07 08:50:01;;;;;;;1999.90;999.90;;;;;;;23.77;68.05;100613.69;5039386;28;20171;-55
2022/08/07 08:52:52;;;;;;;1999.90;999.90;;;;;;;23.87;72.03;100624.59;5063259;28;20451;-56
2022/08/07 08:55:40;;;;;;;1999.90;999.90;;;;;;;23.84;68.57;100611.44;5058264;28;20061;-56
2022/08/07 08:58:38;;;;;;;1999.90;999.90;;;;;;;24.12;69.85;100621.13;5057918;28;20118;-55
2022/08/07 09:01:44;;;;;;;1999.90;999.90;;;;;;;25.55;67.79;100622.53;5058794;28;20079;-55
2022/08/07 09:04:47;;;;;;;1999.90;999.90;;;;;;;24.03;66.82;100622.59;5057881;28;20102;-54
2022/08/07 09:08:03;;;;;;;1999.90;999.90;;;;;;;24.40;63.91;100623.56;5057323;28;20088;-55
2022/08/07 09:11:12;;;;;;;1999.90;999.90;;;;;;;24.26;65.20;100618.34;5059808;28;20411;-53
2022/08/07 09:14:25;;;;;;;1999.90;999.90;;;;;;;22.95;65.16;100622.63;5057902;28;20047;-53
2022/08/07 09:17:28;;;;;;;1999.90;999.90;;;;;;;24.57;62.25;100610.84;5057396;28;20056;-53
2022/08/07 09:20:43;;;;;;;1999.90;999.90;;;;;;;24.57;64.58;100614.41;5057460;28;20060;-54
2022/08/07 09:23:58;;;;;;;1999.90;999.90;;;;;;;23.83;61.07;100610.59;5059998;28;20068;-51
2022/08/07 09:27:00;;;;;;;1999.90;999.90;;;;;;;22.98;69.74;100607.25;5055322;28;20051;-53
2022/08/07 09:29:54;;;;;;;1999.90;999.90;;;;;;;23.52;67.92;100614.41;5053365;28;20647;-53
2022/08/07 09:32:45;;;;;;;1999.90;999.90;;;;;;;24.62;61.95;100603.38;5051601;28;20093;-54
2022/08/07 09:35:45;;;;;;;1999.90;999.90;;;;;;;24.22;59.56;100604.31;5053278;28;20051;-54
2022/08/07 09:38:43;;;;;;;1999.90;999.90;;;;;;;24.80;62.44;100606.56;5051833;28;20074;-53
2022/08/07 09:41:45;;;;;;;1999.90;999.90;;;;;;;24.55;59.19;100597.59;5051479;28;20048;-56
2022/08/07 09:44:45;;;;;;;1999.90;999.90;;;;;;;25.51;62.11;100589.72;5054552;28;20922;-56
2022/08/07 09:48:07;;;;;;;1999.90;999.90;;;;;;;25.00;58.96;100591.72;5052899;28;20095;-56
2022/08/07 09:51:03;;;;;;;1999.90;999.90;;;;;;;25.58;64.39;100590.97;5054419;28;20055;-56
2022/08/07 09:53:54;;;;;;;1999.90;999.90;;;;;;;25.53;60.89;100587.75;5054227;28;20087;-55
2022/08/07 09:57:28;;;;;;;1999.90;999.90;;;;;;;25.38;62.35;100586.22;5054934;28;20142;-55
2022/08/07 10:00:15;;;;;;;1999.90;999.90;;;;;;;25.04;54.60;100595.88;5051168;28;20040;-53
2022/08/07 10:03:23;;;;;;;1999.90;999.90;;;;;;;24.17;58.39;100594.88;5051584;28;20117;-54
2022/08/07 10:06:30;;;;;;;1999.90;999.90;;;;;;;24.86;61.24;100582.88;5050549;28;20072;-53
2022/08/07 10:09:29;;;;;;;1999.90;999.90;;;;;;;24.83;60.13;100588.44;5052852;28;20102;-55
2022/08/07 10:12:33;;;;;;;1999.90;999.90;;;;;;;25.83;61.01;100579.22;5052176;28;20533;-54
2022/08/07 10:15:45;;;;;;;1999.90;999.90;;;;;;;24.77;60.94;100578.16;5053538;28;20695;-53
2022/08/07 10:19:02;;;;;;;1999.90;999.90;;;;;;;25.32;58.35;100575.97;5053978;28;20123;-54
2022/08/07 10:22:21;;;;;;;1999.90;999.90;;;;;;;26.47;52.79;100570.66;5051658;28;20060;-53
2022/08/07 10:25:35;;;;;;;1999.90;999.90;;;;;;;24.92;50.70;100570.81;5051158;28;20102;-53
2022/08/07 10:28:29;;;;;;;1999.90;999.90;;;;;;;24.72;53.19;100561.56;5049876;28;20056;-54
2022/08/07 10:31:36;;;;;;;1999.90;999.90;;;;;;;25.60;52.72;100554.13;5050934;28;20072;-54
2022/08/07 10:34:39;;;;;;;1999.90;999.90;;;;;;;25.05;51.12;100560.91;5051165;28;20045;-53
2022/08/07 10:37:59;;;;;;;1999.90;999.90;;;;;;;25.24;59.22;100555.09;5053952;28;20078;-54
2022/08/07 10:40:49;;;;;;;1999.90;999.90;;;;;;;23.36;55.52;100550.44;5030350;28;20051;-54
2022/08/07 10:43:49;;;;;;;1999.90;999.90;;;;;;;22.96;58.53;100547.72;5052624;28;20051;-54
2022/08/07 10:46:52;;;;;;;1999.90;999.90;;;;;;;25.27;60.69;100549.50;5051804;28;20060;-54
2022/08/07 10:49:49;;;;;;;1999.90;999.90;;;;;;;25.38;56.13;100543.31;5064335;28;20159;-53
2022/08/07 10:52:46;;;;;;;1999.90;999.90;;;;;;;24.32;54.47;100547.47;5052449;28;20386;-53
2022/08/07 10:55:59;;;;;;;1999.90;999.90;;;;;;;22.69;60.48;100536.97;5050201;28;20102;-53
2022/08/07 10:59:08;;;;;;;1999.90;999.90;;;;;;;24.65;57.89;100536.19;5050947;28;20045;-54
2022/08/07 11:02:00;;;;;;;1999.90;999.90;;;;;;;24.85;59.33;100535.59;5052251;28;20416;-54
2022/08/07 11:04:56;;;;;;;1999.90;999.90;;;;;;;25.40;52.70;100528.00;5055150;28;20113;-53
2022/08/07 11:08:18;;;;;;;1999.90;999.90;;;;;;;24.92;52.40;100530.66;5056568;28;20044;-54
2022/08/07 11:11:09;;;;;;;1999.90;999.90;;;;;;;24.17;52.38;100522.63;5054617;28;20049;-52
2022/08/07 11:14:19;;;;;;;1999.90;999.90;;;;;;;24.52;57.46;100522.84;5050696;28;20037;-53
2022/08/07 11:17:11;;;;;;;1999.90;999.90;;;;;;;25.36;54.64;100531.88;5056563;28;20031;-54
2022/08/07 11:19:58;;;;;;;1999.90;999.90;;;;;;;25.33;56.03;100510.66;5051379;28;20174;-52
2022/08/07 11:23:17;;;;;;;1999.90;999.90;;;;;;;24.70;49.72;100513.47;5051435;28;20464;-52
2022/08/07 11:26:18;;;;;;;1999.90;999.90;;;;;;;25.25;52.42;100513.06;5053798;28;20118;-54
2022/08/07 11:29:23;;;;;;;1999.90;999.90;;;;;;;24.71;51.73;100507.16;5051676;28;20086;-54
2022/08/07 11:32:19;;;;;;;1999.90;999.90;;;;;;;25.15;55.10;100503.06;5053178;28;21008;-53
2022/08/07 11:35:17;;;;;;;1999.90;999.90;;;;;;;24.39;52.26;100500.56;5050624;28;20081;-53
2022/08/07 11:38:19;;;;;;;1999.90;999.90;;;;;;;25.62;53.73;100506.63;5049321;28;20107;-53
2022/08/07 11:41:10;;;;;;;;;;;;;;;25.32;53.29;100508.97;5052803;28;20098;-53
2022/08/07 11:44:08;;;;;;;1999.90;999.90;;;;;;;25.20;51.46;100501.84;5052382;28;20260;-54
2022/08/07 11:47:08;;;;;;;1999.90;999.90;;;;;;;24.35;51.48;100499.09;5051490;28;20129;-53
2022/08/07 11:50:02;;;;;;;1999.90;999.90;;;;;;;24.78;58.33;100498.66;5050178;28;20456;-53
2022/08/07 11:53:05;;;;;;;1999.90;999.90;;;;;;;25.53;54.20;100495.72;5054726;28;20044;-53
2022/08/07 11:56:38;;;;;;;1999.90;999.90;;;;;;;24.24;51.10;100494.47;5057867;28;20048;-53
2022/08/07 11:59:34;;;;;;;1999.90;999.90;;;;;;;25.41;49.47;100486.78;5054527;28;20380;-53
2022/08/07 12:02:22;;;;;;;1999.90;999.90;;;;;;;25.77;51.39;100492.97;5056853;28;20067;-58
2022/08/07 12:05:26;;;;;;;1999.90;999.90;;;;;;;24.72;53.40;100483.91;5055160;28;20423;-53
2022/08/07 12:08:17;;;;;;;1999.90;999.90;;;;;;;24.27;49.82;100481.72;5057331;28;20057;-53
2022/08/07 12:11:13;;;;;;;1999.90;999.90;;;;;;;24.57;52.49;100476.97;5055522;28;20053;-52
2022/08/07 12:14:17;;;;;;;1999.90;999.90;;;;;;;24.60;49.39;100476.75;5056371;28;20072;-55
2022/08/07 12:17:07;;;;;;;1999.90;999.90;;;;;;;24.34;51.14;100468.78;5067128;28;20056;-55
2022/08/07 12:19:59;;;;;;;1999.90;999.90;;;;;;;24.79;56.16;100466.41;5062847;28;20799;-55
2022/08/07 12:23:26;;;;;;;1999.90;999.90;;;;;;;24.81;50.33;100471.66;5059647;28;20048;-55
2022/08/07 12:26:26;;;;;;;1999.90;999.90;;;;;;;25.55;51.17;100467.84;5052506;28;20091;-56
2022/08/07 12:29:35;;;;;;;1999.90;999.90;;;;;;;24.93;50.98;100473.44;5054291;28;20098;-54
2022/08/07 12:32:28;;;;;;;1999.90;999.90;;;;;;;24.29;56.85;100470.94;5052049;28;20045;-53
2022/08/07 12:35:14;;;;;;;1999.90;999.90;;;;;;;24.16;58.64;100464.75;5051547;28;20105;-55
2022/08/07 12:38:00;;;;;;;1999.90;999.90;;;;;;;24.26;53.16;100469.31;5054780;28;20077;-54
2022/08/07 12:40:47;;;;;;;1999.90;999.90;;;;;;;25.05;52.79;100467.13;5054575;28;20044;-52